createdAt,value
2022-10-06T00:01:28.843Z,0.70
2022-10-06T00:04:00.618Z,0.65
2022-10-06T00:06:31.599Z,0.60
2022-10-06T00:08:59.814Z,0.90
2022-10-06T00:11:30.208Z,0.90
2022-10-06T00:13:58.248Z,1.10
2022-10-06T00:16:26.597Z,0.93
2022-10-06T00:18:56.730Z,0.70
2022-10-06T00:21:41.760Z,0.63
2022-10-06T00:24:09.990Z,0.95
2022-10-06T00:26:38.470Z,0.80
2022-10-06T00:29:07.177Z,0.57
2022-10-06T00:31:46.642Z,0.80
2022-10-06T00:34:14.808Z,0.63
2022-10-06T00:36:44.765Z,0.52
2022-10-06T00:39:12.680Z,0.63
2022-10-06T00:41:43.612Z,0.88
2022-10-06T00:44:11.554Z,1.05
2022-10-06T00:46:46.236Z,0.70
2022-10-06T00:49:19.632Z,0.60
2022-10-06T00:51:52.652Z,0.60
2022-10-06T00:54:20.910Z,0.38
2022-10-06T00:56:49.217Z,0.75
2022-10-06T00:59:19.583Z,0.73
2022-10-06T01:01:54.952Z,0.88
2022-10-06T01:04:33.720Z,0.60
2022-10-06T01:07:04.188Z,0.60
2022-10-06T01:09:36.113Z,0.77
2022-10-06T01:12:09.596Z,0.75
2022-10-06T01:14:40.595Z,0.65
2022-10-06T01:17:20.122Z,0.75
2022-10-06T01:19:55.119Z,0.70
2022-10-06T01:22:29.802Z,1.00
2022-10-06T01:24:58.674Z,0.60
2022-10-06T01:27:29.964Z,0.40
2022-10-06T01:29:59.972Z,0.70
2022-10-06T01:32:35.183Z,0.88
2022-10-06T01:35:03.379Z,0.60
2022-10-06T01:37:33.073Z,0.80
2022-10-06T01:40:01.223Z,0.52
2022-10-06T01:42:31.866Z,0.60
2022-10-06T01:45:00.395Z,0.90
2022-10-06T01:47:28.665Z,1.60
2022-10-06T01:49:57.770Z,3.10
2022-10-06T01:52:26.157Z,5.30
2022-10-06T01:54:55.691Z,2.22
2022-10-06T01:57:26.663Z,1.48
2022-10-06T01:59:55.164Z,1.17
2022-10-06T02:02:24.737Z,1.02
2022-10-06T02:05:04.492Z,1.05
2022-10-06T02:07:32.700Z,0.80
2022-10-06T02:10:02.181Z,0.93
2022-10-06T02:12:33.485Z,0.68
2022-10-06T02:15:01.916Z,1.08
2022-10-06T02:17:31.289Z,1.25
2022-10-06T02:20:02.027Z,1.13
2022-10-06T02:25:36.351Z,0.90
2022-10-06T02:28:04.510Z,0.80
2022-10-06T02:30:37.142Z,1.00
2022-10-06T02:33:06.341Z,1.05
2022-10-06T02:35:34.370Z,1.08
2022-10-06T02:38:02.339Z,1.17
2022-10-06T02:40:31.134Z,0.30
2022-10-06T02:43:00.529Z,1.08
2022-10-06T02:45:32.189Z,0.40
2022-10-06T02:48:00.069Z,0.28
2022-10-06T02:50:28.651Z,0.43
2022-10-06T02:52:59.244Z,0.10
2022-10-06T02:55:31.359Z,0.17
2022-10-06T02:58:02.463Z,0.20
2022-10-06T03:00:30.653Z,0.35
2022-10-06T03:03:00.418Z,0.20
2022-10-06T03:05:28.698Z,0.38
2022-10-06T03:07:56.761Z,0.40
2022-10-06T03:10:24.877Z,0.32
2022-10-06T03:12:53.285Z,0.45
2022-10-06T03:15:24.999Z,0.10
2022-10-06T03:17:53.427Z,0.10
2022-10-06T03:20:21.335Z,0.10
2022-10-06T03:23:13.653Z,0.10
2022-10-06T03:25:42.213Z,0.10
2022-10-06T03:28:12.965Z,0.20
2022-10-06T03:30:42.335Z,0.50
2022-10-06T03:33:10.970Z,0.10
2022-10-06T03:35:46.203Z,0.65
2022-10-06T03:38:17.084Z,0.30
2022-10-06T03:40:45.315Z,0.20
2022-10-06T03:43:13.422Z,0.13
2022-10-06T03:45:42.997Z,0.30
2022-10-06T03:48:11.110Z,0.13
2022-10-06T03:50:40.020Z,0.10
2022-10-06T03:53:10.350Z,0.20
2022-10-06T03:55:41.765Z,0.10
2022-10-06T03:58:35.293Z,0.10
2022-10-06T04:01:09.826Z,0.20
2022-10-06T04:03:37.895Z,0.45
2022-10-06T04:06:12.378Z,0.20
2022-10-06T04:08:42.980Z,0.20
2022-10-06T04:11:20.174Z,0.30
2022-10-06T04:13:50.215Z,0.55
2022-10-06T04:16:21.779Z,0.55
2022-10-06T04:18:57.595Z,0.30
2022-10-06T04:21:26.707Z,0.30
2022-10-06T04:23:56.788Z,0.38
2022-10-06T04:26:27.284Z,0.70
2022-10-06T04:28:55.408Z,0.30
2022-10-06T04:31:28.135Z,0.38
2022-10-06T04:33:57.902Z,0.55
2022-10-06T04:36:27.669Z,0.05
2022-10-06T04:38:58.918Z,0.20
2022-10-06T04:41:34.996Z,0.82
2022-10-06T04:44:04.818Z,0.52
2022-10-06T04:46:43.192Z,0.32
2022-10-06T04:49:20.076Z,0.20
2022-10-06T04:51:50.507Z,0.40
2022-10-06T04:54:19.789Z,0.55
2022-10-06T04:56:51.331Z,0.30
2022-10-06T04:59:44.224Z,1.33
2022-10-06T05:02:15.174Z,0.20
2022-10-06T05:04:44.642Z,0.38
2022-10-06T05:07:17.505Z,0.03
2022-10-06T05:09:46.165Z,0.30
2022-10-06T05:12:14.063Z,0.20
2022-10-06T05:14:42.133Z,0.10
2022-10-06T05:17:10.180Z,1.25
2022-10-06T05:19:40.925Z,0.20
2022-10-06T05:22:09.513Z,0.55
2022-10-06T05:24:39.865Z,0.00
2022-10-06T05:27:07.840Z,0.70
2022-10-06T05:29:41.142Z,0.25
2022-10-06T05:32:10.387Z,0.35
2022-10-06T05:34:39.691Z,0.20
2022-10-06T05:37:09.571Z,0.10
2022-10-06T05:39:37.525Z,0.22
2022-10-06T05:42:05.439Z,0.10
2022-10-06T05:44:36.584Z,0.73
2022-10-06T05:47:09.436Z,0.30
2022-10-06T05:49:37.742Z,0.10
2022-10-06T05:52:06.232Z,0.40
2022-10-06T05:54:38.836Z,0.13
2022-10-06T05:57:08.555Z,0.20
2022-10-06T05:59:39.633Z,0.45
2022-10-06T06:02:10.145Z,0.68
2022-10-06T06:04:42.750Z,0.10
2022-10-06T06:07:11.452Z,0.13
2022-10-06T06:09:43.102Z,0.10
2022-10-06T06:12:11.122Z,0.20
2022-10-06T06:15:09.059Z,0.50
2022-10-06T06:17:48.588Z,0.45
2022-10-06T06:20:17.031Z,0.20
2022-10-06T06:22:45.142Z,0.22
2022-10-06T06:25:14.672Z,0.50
2022-10-06T06:27:45.457Z,0.70
2022-10-06T06:30:13.965Z,0.17
2022-10-06T06:32:42.662Z,0.43
2022-10-06T06:35:12.008Z,0.10
2022-10-06T06:37:40.095Z,0.20
2022-10-06T06:40:09.319Z,0.43
2022-10-06T06:42:43.613Z,0.05
2022-10-06T06:45:38.060Z,0.30
2022-10-06T06:48:16.515Z,0.30
2022-10-06T06:50:46.877Z,0.43
2022-10-06T06:53:17.198Z,0.25
2022-10-06T06:55:51.172Z,0.30
2022-10-06T06:58:22.949Z,0.35
2022-10-06T07:00:54.416Z,0.50
2022-10-06T07:03:55.540Z,0.52
2022-10-06T07:06:16.372Z,0.10
2022-10-06T07:08:48.939Z,0.30
2022-10-06T07:11:19.751Z,0.20
2022-10-06T07:14:13.214Z,0.30
2022-10-06T07:16:58.838Z,0.88
2022-10-06T07:19:53.317Z,0.28
2022-10-06T07:22:42.844Z,0.63
2022-10-06T07:26:38.603Z,0.65
2022-10-06T07:29:07.192Z,0.55
2022-10-06T07:31:37.685Z,0.30
2022-10-06T07:34:08.413Z,2.38
2022-10-06T07:36:36.626Z,0.52
2022-10-06T07:39:07.424Z,0.20
2022-10-06T07:41:35.494Z,0.20
2022-10-06T07:44:07.952Z,0.70
2022-10-06T07:46:38.723Z,0.60
2022-10-06T07:49:14.703Z,0.40
2022-10-06T07:51:53.616Z,0.45
2022-10-06T07:54:25.232Z,0.35
2022-10-06T07:57:20.674Z,0.45
2022-10-06T07:59:50.568Z,0.52
2022-10-06T08:02:19.944Z,0.43
2022-10-06T08:04:48.016Z,0.70
2022-10-06T08:07:16.219Z,0.40
2022-10-06T08:09:49.243Z,0.63
2022-10-06T08:12:37.186Z,0.85
2022-10-06T08:15:11.352Z,1.00
2022-10-06T08:17:39.793Z,0.65
2022-10-06T08:20:10.315Z,0.75
2022-10-06T08:22:42.043Z,0.40
2022-10-06T08:25:36.219Z,0.45
2022-10-06T08:28:04.440Z,0.70
2022-10-06T08:30:36.987Z,0.30
2022-10-06T08:33:05.756Z,0.70
2022-10-06T08:35:34.397Z,0.30
2022-10-06T08:38:02.756Z,0.30
2022-10-06T08:40:30.830Z,0.30
2022-10-06T08:43:02.358Z,0.70
2022-10-06T08:45:38.669Z,0.32
2022-10-06T08:48:14.406Z,0.25
2022-10-06T08:50:54.212Z,0.20
2022-10-06T08:53:30.695Z,0.43
2022-10-06T08:56:05.511Z,0.20
2022-10-06T08:58:47.690Z,0.73
2022-10-06T09:01:19.669Z,1.17
2022-10-06T09:03:51.871Z,0.40
2022-10-06T09:06:31.603Z,0.70
2022-10-06T09:09:07.325Z,0.75
2022-10-06T09:11:47.989Z,0.40
2022-10-06T09:14:26.864Z,1.17
2022-10-06T09:17:00.714Z,0.73
2022-10-06T09:19:38.788Z,0.77
2022-10-06T09:22:12.364Z,0.70
2022-10-06T09:24:47.145Z,0.80
2022-10-06T09:27:20.823Z,0.40
2022-10-06T09:29:50.002Z,0.40
2022-10-06T09:32:18.271Z,1.17
2022-10-06T09:34:52.455Z,0.80
2022-10-06T09:37:20.724Z,0.47
2022-10-06T09:39:50.866Z,1.55
2022-10-06T09:42:22.972Z,0.47
2022-10-06T09:44:59.137Z,0.50
2022-10-06T09:47:40.314Z,1.07
2022-10-06T09:50:20.120Z,0.57
2022-10-06T09:53:07.396Z,0.60
2022-10-06T09:55:44.414Z,0.90
2022-10-06T09:58:22.985Z,0.70
2022-10-06T10:00:55.380Z,0.77
2022-10-06T10:05:56.139Z,0.73
2022-10-06T10:08:26.371Z,0.60
2022-10-06T10:11:27.754Z,0.63
2022-10-06T10:13:56.549Z,1.02
2022-10-06T10:16:26.488Z,0.25
2022-10-06T10:18:55.161Z,1.08
2022-10-06T10:21:30.496Z,0.43
2022-10-06T10:24:00.737Z,0.80
2022-10-06T10:26:45.583Z,0.70
2022-10-06T10:29:38.454Z,0.50
2022-10-06T10:32:15.278Z,0.30
2022-10-06T10:34:59.866Z,0.30
2022-10-06T10:37:36.361Z,0.63
2022-10-06T10:40:16.712Z,0.40
2022-10-06T10:42:50.685Z,0.65
2022-10-06T10:45:34.003Z,0.60
2022-10-06T10:48:06.667Z,0.52
2022-10-06T10:50:49.789Z,0.47
2022-10-06T10:53:28.266Z,0.38
2022-10-06T10:55:57.863Z,0.55
2022-10-06T10:58:34.853Z,1.35
2022-10-06T11:01:11.296Z,1.20
2022-10-06T11:03:39.653Z,0.63
2022-10-06T11:06:29.814Z,0.30
2022-10-06T11:09:04.225Z,0.30
2022-10-06T11:11:51.916Z,1.10
2022-10-06T11:14:32.359Z,0.38
2022-10-06T11:17:08.019Z,0.52
2022-10-06T11:19:51.786Z,0.30
2022-10-06T11:22:28.211Z,0.63
2022-10-06T11:25:04.588Z,0.47
2022-10-06T11:27:44.916Z,0.40
2022-10-06T11:30:19.615Z,0.85
2022-10-06T11:33:01.501Z,0.68
2022-10-06T11:35:42.689Z,0.45
2022-10-06T11:38:23.091Z,0.50
2022-10-06T11:41:09.848Z,0.60
2022-10-06T11:43:46.985Z,0.82
2022-10-06T11:46:37.507Z,0.90
2022-10-06T11:49:39.396Z,0.50
2022-10-06T11:52:36.618Z,0.52
2022-10-06T11:55:14.171Z,0.60
2022-10-06T12:01:02.064Z,1.45
2022-10-06T12:04:14.156Z,0.40
2022-10-06T12:07:00.029Z,0.28
2022-10-06T12:09:52.728Z,0.60
2022-10-06T12:13:06.806Z,0.68
2022-10-06T12:18:59.284Z,0.20
2022-10-06T12:21:54.681Z,0.20
2022-10-06T12:27:54.704Z,0.30
2022-10-06T12:30:27.924Z,0.22
2022-10-06T12:32:57.948Z,0.68
2022-10-06T12:35:32.261Z,0.38
2022-10-06T12:38:06.197Z,0.25
2022-10-06T12:40:48.970Z,0.75
2022-10-06T12:44:00.813Z,0.57
2022-10-06T12:46:41.535Z,0.22
2022-10-06T12:49:36.941Z,0.30
2022-10-06T12:52:15.212Z,0.30
2022-10-06T12:54:56.281Z,0.30
2022-10-06T12:57:28.456Z,0.47
2022-10-06T13:00:00.113Z,0.63
2022-10-06T13:02:29.269Z,0.22
2022-10-06T13:05:01.609Z,0.52
2022-10-06T13:07:32.145Z,0.20
2022-10-06T13:10:19.850Z,0.25
2022-10-06T13:12:50.261Z,0.15
2022-10-06T13:15:24.041Z,0.45
2022-10-06T13:17:54.987Z,0.80
2022-10-06T13:20:29.177Z,0.52
2022-10-06T13:22:59.581Z,0.88
2022-10-06T13:25:36.748Z,0.20
2022-10-06T13:28:04.781Z,1.23
2022-10-06T13:30:38.552Z,0.20
2022-10-06T13:33:08.854Z,0.20
2022-10-06T13:35:37.477Z,0.17
2022-10-06T13:38:07.569Z,0.30
2022-10-06T13:40:50.396Z,0.10
2022-10-06T13:43:20.703Z,0.20
2022-10-06T13:45:50.135Z,0.55
2022-10-06T13:48:22.411Z,0.40
2022-10-06T13:50:52.959Z,0.10
2022-10-06T13:53:32.735Z,0.20
2022-10-06T13:56:03.022Z,0.13
2022-10-06T13:58:31.177Z,0.40
2022-10-06T14:01:03.618Z,0.15
2022-10-06T14:06:16.181Z,0.55
2022-10-06T14:08:47.650Z,0.32
2022-10-06T14:11:24.168Z,0.17
2022-10-06T14:13:56.446Z,0.05
2022-10-06T14:16:27.601Z,0.10
2022-10-06T14:18:58.362Z,0.30
2022-10-06T14:21:33.923Z,0.47
2022-10-06T14:24:06.226Z,0.43
2022-10-06T14:26:38.364Z,0.40
2022-10-06T14:29:06.961Z,0.08
2022-10-06T14:31:36.274Z,0.30
2022-10-06T14:34:05.640Z,0.43
2022-10-06T14:36:38.256Z,0.73
2022-10-06T14:39:07.710Z,2.75
2022-10-06T14:41:35.810Z,0.47
2022-10-06T14:44:09.678Z,0.73
2022-10-06T14:46:40.118Z,3.03
2022-10-06T14:49:09.461Z,0.60
2022-10-06T14:51:38.825Z,0.00
2022-10-06T14:54:07.677Z,0.30
2022-10-06T14:56:37.943Z,0.03
2022-10-06T14:59:08.055Z,0.17
2022-10-06T15:01:37.900Z,0.10
2022-10-06T15:04:10.277Z,0.25
2022-10-06T15:06:58.529Z,0.10
2022-10-06T15:09:30.457Z,0.82
2022-10-06T15:11:59.597Z,0.25
2022-10-06T15:14:33.653Z,0.15
2022-10-06T15:17:30.518Z,0.55
2022-10-06T15:20:02.523Z,0.20
2022-10-06T15:22:31.714Z,0.65
2022-10-06T15:25:03.343Z,3.83
2022-10-06T15:28:15.900Z,1.27
2022-10-06T15:30:46.016Z,0.20
2022-10-06T15:33:13.997Z,0.28
2022-10-06T15:35:51.189Z,0.20
2022-10-06T15:38:19.429Z,0.30
2022-10-06T15:40:47.461Z,0.88
2022-10-06T15:43:35.565Z,0.20
2022-10-06T15:46:03.846Z,0.52
2022-10-06T15:48:31.856Z,0.38
2022-10-06T15:51:03.554Z,0.20
2022-10-06T15:53:33.789Z,6.07
2022-10-06T15:56:02.039Z,2.75
2022-10-06T15:58:30.011Z,0.50
2022-10-06T16:00:58.265Z,0.50
2022-10-06T16:03:40.767Z,0.20
2022-10-06T16:06:16.586Z,0.35
2022-10-06T16:08:47.353Z,1.70
2022-10-06T16:11:15.469Z,1.92
2022-10-06T16:13:43.680Z,1.27
2022-10-06T16:16:11.656Z,0.82
2022-10-06T16:18:39.892Z,0.77
2022-10-06T16:21:07.799Z,1.13
2022-10-06T16:23:37.364Z,0.90
2022-10-06T16:26:05.306Z,0.82
2022-10-06T16:28:36.565Z,0.45
2022-10-06T16:31:06.240Z,1.10
2022-10-06T16:33:37.442Z,0.50
2022-10-06T16:36:08.297Z,0.30
2022-10-06T16:38:38.100Z,0.50
2022-10-06T16:41:06.595Z,0.95
2022-10-06T16:43:36.949Z,0.88
2022-10-06T16:46:07.362Z,0.82
2022-10-06T16:48:37.213Z,0.43
2022-10-06T16:51:10.392Z,0.80
2022-10-06T16:53:41.832Z,0.95
2022-10-06T16:56:14.329Z,0.38
2022-10-06T16:58:43.977Z,0.50
2022-10-06T17:01:13.925Z,0.75
2022-10-06T17:03:45.463Z,2.58
2022-10-06T17:06:15.837Z,2.60
2022-10-06T17:08:48.130Z,3.55
2022-10-06T17:11:18.373Z,2.47
2022-10-06T17:13:47.836Z,0.50
2022-10-06T17:16:19.027Z,0.88
2022-10-06T17:18:49.206Z,0.68
2022-10-06T17:21:43.371Z,1.10
2022-10-06T17:24:08.555Z,1.27
2022-10-06T17:28:42.423Z,0.57
2022-10-06T17:31:11.248Z,1.00
2022-10-06T17:33:41.339Z,1.50
2022-10-06T17:36:12.410Z,1.33
2022-10-06T17:38:42.603Z,0.68
2022-10-06T17:41:15.267Z,1.77
2022-10-06T17:43:47.885Z,1.63
2022-10-06T17:46:19.224Z,1.10
2022-10-06T17:49:08.373Z,3.17
2022-10-06T17:51:39.050Z,3.03
2022-10-06T17:54:11.995Z,1.40
2022-10-06T17:56:42.891Z,1.25
2022-10-06T17:59:17.395Z,1.50
2022-10-06T18:01:46.159Z,2.00
2022-10-06T18:04:16.781Z,2.58
2022-10-06T18:06:46.313Z,2.15
2022-10-06T18:09:15.249Z,1.73
2022-10-06T18:11:44.256Z,1.58
2022-10-06T18:14:14.545Z,1.58
2022-10-06T18:16:46.222Z,1.77
2022-10-06T18:19:16.763Z,1.73
2022-10-06T18:21:47.831Z,1.75
2022-10-06T18:24:53.304Z,1.45
2022-10-06T18:27:27.974Z,2.15
2022-10-06T18:29:55.973Z,2.10
2022-10-06T18:34:17.818Z,1.67
2022-10-06T18:38:07.755Z,2.00
2022-10-06T18:40:35.658Z,1.10
2022-10-06T18:43:04.338Z,1.73
2022-10-06T18:45:52.851Z,2.38
2022-10-06T18:48:40.322Z,1.45
2022-10-06T18:51:08.357Z,1.95
2022-10-06T18:53:45.392Z,1.50
2022-10-06T18:56:16.989Z,1.63
2022-10-06T18:58:45.549Z,2.40
2022-10-06T19:01:14.397Z,1.73
2022-10-06T19:03:44.247Z,2.60
2022-10-06T19:06:12.173Z,3.88
2022-10-06T19:08:42.897Z,2.85
2022-10-06T19:11:32.006Z,4.03
2022-10-06T19:14:00.423Z,4.05
2022-10-06T19:16:28.449Z,2.38
2022-10-06T19:18:58.484Z,1.65
2022-10-06T19:21:53.147Z,1.70
2022-10-06T19:24:22.825Z,1.55
2022-10-06T19:26:55.117Z,1.58
2022-10-06T19:29:26.773Z,1.73
2022-10-06T19:31:56.995Z,1.15
2022-10-06T19:34:27.230Z,1.27
2022-10-06T19:36:57.385Z,2.28
2022-10-06T19:39:30.531Z,2.25
2022-10-06T19:42:16.419Z,1.75
2022-10-06T19:44:44.981Z,1.63
2022-10-06T19:47:15.542Z,1.45
2022-10-06T19:49:45.427Z,1.35
2022-10-06T19:52:14.535Z,1.00
2022-10-06T19:54:43.060Z,1.75
2022-10-06T19:57:18.175Z,1.45
2022-10-06T19:59:46.302Z,1.58
2022-10-06T20:02:14.404Z,1.75
2022-10-06T20:04:42.501Z,2.35
2022-10-06T20:07:12.471Z,1.38
2022-10-06T20:09:40.620Z,1.75
2022-10-06T20:12:09.115Z,2.13
2022-10-06T20:14:37.277Z,2.33
2022-10-06T20:17:07.374Z,2.00
2022-10-06T20:19:36.019Z,1.85
2022-10-06T20:22:28.679Z,2.20
2022-10-06T20:24:56.800Z,2.60
2022-10-06T20:27:25.105Z,1.98
2022-10-06T20:29:58.085Z,2.15
2022-10-06T20:32:27.386Z,1.70
2022-10-06T20:34:55.548Z,1.60
2022-10-06T20:37:26.100Z,1.30
2022-10-06T20:40:09.528Z,1.02
2022-10-06T20:42:44.573Z,0.60
2022-10-06T20:45:14.834Z,0.30
2022-10-06T20:47:43.454Z,1.60
2022-10-06T20:50:11.854Z,0.73
2022-10-06T20:52:39.923Z,0.73
2022-10-06T20:55:29.615Z,0.95
2022-10-06T20:57:58.098Z,0.93
2022-10-06T21:00:26.356Z,0.77
2022-10-06T21:02:54.557Z,1.30
2022-10-06T21:05:22.956Z,1.38
2022-10-06T21:07:51.272Z,0.98
2022-10-06T21:10:19.446Z,0.73
2022-10-06T21:12:48.918Z,1.35
2022-10-06T21:15:17.063Z,1.02
2022-10-06T21:17:48.398Z,0.95
2022-10-06T21:20:44.388Z,0.82
2022-10-06T21:23:14.720Z,0.90
2022-10-06T21:25:43.102Z,1.02
2022-10-06T21:28:13.825Z,0.55
2022-10-06T21:30:44.264Z,0.68
2022-10-06T21:33:12.348Z,1.42
2022-10-06T21:35:40.278Z,0.68
2022-10-06T21:38:12.094Z,0.50
2022-10-06T21:40:40.113Z,0.50
2022-10-06T21:43:08.003Z,1.10
2022-10-06T21:45:40.114Z,0.70
2022-10-06T21:48:08.098Z,0.90
2022-10-06T21:50:38.563Z,0.90
2022-10-06T21:53:06.955Z,0.63
2022-10-06T21:55:34.910Z,0.50
2022-10-06T21:58:05.320Z,0.85
2022-10-06T22:00:33.369Z,0.98
2022-10-06T22:03:06.329Z,0.60
2022-10-06T22:05:34.787Z,0.75
2022-10-06T22:08:02.838Z,0.80
2022-10-06T22:10:30.882Z,0.47
2022-10-06T22:12:59.029Z,0.98
2022-10-06T22:15:27.201Z,0.43
2022-10-06T22:17:55.156Z,0.95
2022-10-06T22:20:24.706Z,0.80
2022-10-06T22:22:52.675Z,1.10
2022-10-06T22:25:20.737Z,0.70
2022-10-06T22:29:39.388Z,0.70
2022-10-06T22:32:07.420Z,0.93
2022-10-06T22:34:35.528Z,0.82
2022-10-06T22:37:06.670Z,1.10
2022-10-06T22:39:34.884Z,1.05
2022-10-06T22:42:02.996Z,2.28
2022-10-06T22:44:31.014Z,1.50
2022-10-06T22:47:00.602Z,1.67
2022-10-06T22:49:28.841Z,0.98
2022-10-06T22:51:56.804Z,1.08
2022-10-06T22:54:29.926Z,1.20
2022-10-06T22:56:57.997Z,0.95
2022-10-06T22:59:28.026Z,1.83
2022-10-06T23:02:02.488Z,0.75
2022-10-06T23:04:30.389Z,1.05
2022-10-06T23:06:58.401Z,0.93
2022-10-06T23:09:26.379Z,1.38
2022-10-06T23:11:54.326Z,0.73
2022-10-06T23:14:22.674Z,0.80
2022-10-06T23:16:50.697Z,1.10
2022-10-06T23:19:20.097Z,0.73
2022-10-06T23:21:48.190Z,0.70
2022-10-06T23:24:16.286Z,2.30
2022-10-06T23:26:44.834Z,0.40
2022-10-06T23:29:13.796Z,1.00
2022-10-06T23:31:41.854Z,0.88
2022-10-06T23:34:09.831Z,0.70
2022-10-06T23:36:39.267Z,0.55
2022-10-06T23:39:07.419Z,0.85
2022-10-06T23:41:35.363Z,1.10
2022-10-06T23:44:03.367Z,0.82
2022-10-06T23:46:31.259Z,1.15
2022-10-06T23:48:59.274Z,1.08
2022-10-06T23:51:27.600Z,1.10
2022-10-06T23:53:56.909Z,1.10
2022-10-06T23:56:27.683Z,1.30
2022-10-06T23:58:55.615Z,0.82
